• Join FlightAware (Why Join?)
  • Login
  • US Flag 
08:20PM EDT


 

Airport Tracker/Info


-or-


 

Live Flight TrackerFlight Track Log ✈ AWE364 ✈ 01-May-2012 ✈ KGEG - KPHX

Flight Track Log - Related Links

Times and Time Zones

All times are in EDT time to prevent confusion due to time zone crossing. See the AWE364 flight status page for this flight to view local times or setup timezone preferences in your user account.

Time Position Orientation Groundspeed Altitude Reporting Facility
EDT Latitude Longitude Course Direction KTS MPH feet Rate Location/Type
11:48AM 47.5905 -117.5211 190° South  Level FlightAware Approximate
11:49AM 47.4786 -117.4560 321° Northwest  Level FlightAware Approximate
11:50AM 47.5425 -117.5336 161° South 229 264 5,800  Level Seattle Center
11:51AM 47.4700 -117.4964 161° South 274 315 9,500 3,120 Climbing Seattle Center
11:52AM 47.3814 -117.4511 161° South 313 360 12,300 2,760 Climbing Seattle Center
11:53AM 47.2881 -117.4050 161° South 356 410 15,200 2,640 Climbing Seattle Center
11:54AM 47.1892 -117.3550 163° South 372 428 17,700 2,400 Climbing Seattle Center
11:55AM 47.0939 -117.3119 161° South 383 441 20,200 2,400 Climbing Seattle Center
11:56AM 46.9844 -117.2564 161° South 406 467 22,700 2,100 Climbing Seattle Center
11:57AM 46.8739 -117.2017 162° South 417 480 24,500 1,800 Climbing Seattle Center
11:58AM 46.7581 -117.1461 161° South 433 498 26,500 1,920 Climbing Seattle Center
11:59AM 46.6167 -117.0772 161° South 446 513 28,500 1,800 Climbing Seattle Center
12:00PM 46.4953 -117.0175 162° South 457 526 30,200 1,320 Climbing Seattle Center
12:01PM 46.4031 -116.9747 161° South 461 531 31,300 1,440 Climbing Seattle Center
12:02PM 46.2425 -116.8956 162° South 473 544 33,200 1,620 Climbing Seattle Center
12:03PM 46.1217 -116.8381 175° South 477 549 34,600 1,560 Climbing Seattle Center
12:04PM 45.9808 -116.8214 176° South 456 525 36,500 1,380 Climbing Seattle Center
12:05PM 45.8631 -116.8083 172° South 444 511 37,500 780 Climbing Seattle Center
12:07PM 45.7419 -116.7842 156° South 455 524 38,100 720 Climbing Seattle Center
12:08PM 45.6058 -116.6975 155° Southeast 478 550 39,000 420 Climbing Seattle Center
12:09PM 45.4900 -116.6217 155° Southeast 479 551 39,000  Level Seattle Center
12:10PM 45.3547 -116.5328 154° Southeast 480 552 39,000  Level Seattle Center
12:11PM 45.2406 -116.4553 156° South 477 549 39,000  Level Seattle Center
12:12PM 45.1253 -116.3811 155° Southeast 476 548 39,000  Level Seattle Center
12:13PM 44.9903 -116.2931 155° Southeast 477 549 39,100  Climbing Seattle Center
12:14PM 44.8764 -116.2186 155° Southeast 473 544 39,000 -60 Descending Seattle Center
12:15PM 44.7431 -116.1314 156° South 472 543 39,000  Level Salt Lake Center
12:16PM 44.6239 -116.0575 156° South 480 552 39,000  Level Salt Lake Center
12:17PM 44.4867 -115.9700 154° Southeast 476 548 39,100  Climbing Salt Lake Center
12:18PM 44.3706 -115.8917 155° Southeast 474 545 39,000 -60 Descending Salt Lake Center
12:19PM 44.2539 -115.8169 156° South 477 549 39,000  Level Salt Lake Center
12:20PM 44.1169 -115.7331 155° Southeast 479 551 39,000  Level Salt Lake Center
12:21PM 44.0042 -115.6611 156° South 469 540 39,000  Level Salt Lake Center
12:22PM 43.8722 -115.5794 156° South 464 534 39,000  Level Salt Lake Center
12:23PM 43.7603 -115.5097 156° South 462 532 39,000  Level Salt Lake Center
12:24PM 43.6278 -115.4269 156° South 465 535 39,000  Level Salt Lake Center
12:25PM 43.5133 -115.3572 156° South 469 540 39,100  Climbing Salt Lake Center
12:26PM 43.3817 -115.2758 156° South 465 535 39,000 -60 Descending Salt Lake Center
12:27PM 43.2700 -115.2069 156° South 461 531 39,000  Level Salt Lake Center
12:28PM 43.1592 -115.1392 156° South 457 526 39,000  Level Salt Lake Center
12:29PM 43.0303 -115.0619 156° South 454 522 39,000  Level Salt Lake Center
12:30PM 42.9206 -114.9953 156° South 451 519 39,000 -60 Level Salt Lake Center
12:31PM 42.7928 -114.9175 164° South 450 518 38,900  Descending Salt Lake Center
12:32PM 42.6792 -114.8739 175° South 443 510 39,000  Climbing Salt Lake Center
12:33PM 42.5547 -114.8581 176° South 440 506 39,000  Level Salt Lake Center
12:34PM 42.4317 -114.8453 176° South 441 507 39,000  Level Salt Lake Center
12:35PM 42.2872 -114.8308 176° South 442 509 39,000  Level Salt Lake Center
12:36PM 42.1642 -114.8178 176° South 440 506 39,000 -60 Level Salt Lake Center
12:37PM 42.0392 -114.8072 176° South 438 504 38,900  Descending Salt Lake Center
12:39PM 41.9225 -114.7950 176° South 438 504 39,000 60 Climbing Salt Lake Center
12:40PM 41.7864 -114.7825 176° South 437 503 39,100  Climbing Salt Lake Center
12:41PM 41.6717 -114.7711 176° South 433 498 39,000 -60 Descending Salt Lake Center
12:42PM 41.5589 -114.7594 176° South 424 488 39,000  Level Salt Lake Center
12:43PM 41.4203 -114.7467 176° South 424 488 39,000  Level Salt Lake Center
12:44PM 41.2997 -114.7350 176° South 428 493 39,000  Level Salt Lake Center
12:45PM 41.1792 -114.7231 176° South 430 495 39,100  Climbing Salt Lake Center
12:46PM 41.0569 -114.7111 176° South 434 499 39,000 -120 Descending Salt Lake Center
12:47PM 40.9303 -114.6997 176° South 431 496 38,900 -60 Descending Salt Lake Center
12:48PM 40.8189 -114.6883 176° South 428 493 38,900  Level Salt Lake Center
12:49PM 40.6992 -114.6769 176° South 428 493 39,000 60 Climbing Salt Lake Center
12:50PM 40.5592 -114.6653 176° South 428 493 39,100  Climbing Salt Lake Center
12:51PM 40.4369 -114.6531 176° South 433 498 39,000 -60 Descending Salt Lake Center
12:52PM 40.3156 -114.6411 176° South 434 499 39,000  Level Salt Lake Center
12:53PM 40.1925 -114.6306 176° South 437 503 39,000  Level Salt Lake Center
12:54PM 40.0706 -114.6186 176° South 437 503 39,000  Level Salt Lake Center
12:55PM 39.9478 -114.6064 176° South 437 503 39,000  Level Salt Lake Center
12:56PM 39.8250 -114.5956 176° South 438 504 39,000 -240 Level Salt Lake Center
12:57PM 39.6947 -114.5831 176° South 441 507 38,600 -960 Descending Salt Lake Center
12:58PM 39.5783 -114.5731 176° South 438 504 37,100 -1,320 Descending Salt Lake Center
12:59PM 39.4331 -114.5611 171° South 466 536 36,000 -840 Descending Salt Lake Center
01:00PM 39.3094 -114.5356 155° Southeast 470 541 35,500 -540 Descending Salt Lake Center
01:01PM 39.1769 -114.4556 148° Southeast 492 566 35,000 -300 Descending Salt Lake Center
01:02PM 39.0600 -114.3600 149° Southeast 490 564 35,000  Level Salt Lake Center
01:03PM 38.9422 -114.2681 149° Southeast 489 563 35,000 -60 Level Salt Lake Center
01:04PM 38.8233 -114.1753 149° Southeast 491 565 34,900  Descending Salt Lake Center
01:05PM 38.7061 -114.0856 149° Southeast 486 559 35,000  Climbing Salt Lake Center
01:06PM 38.5875 -113.9958 148° Southeast 486 559 35,000  Level Salt Lake Center
01:07PM 38.4694 -113.9028 149° Southeast 488 562 35,000  Level Salt Lake Center
01:08PM 38.3533 -113.8150 150° Southeast 481 554 35,000  Level Salt Lake Center
01:09PM 38.2144 -113.7111 150° Southeast 477 549 35,000  Level Salt Lake Center
01:10PM 38.0983 -113.6244 149° Southeast 477 549 35,000  Level Salt Lake Center
01:11PM 37.9822 -113.5369 152° Southeast 478 550 35,000  Level Salt Lake Center
01:13PM 37.8636 -113.4569 155° Southeast 477 549 35,000  Level Salt Lake Center
01:14PM 37.7453 -113.3858 154° Southeast 468 539 35,000 -420 Level Salt Lake Center
01:15PM 37.6278 -113.3147 154° Southeast 467 537 34,200 -900 Descending Salt Lake Center
01:16PM 37.5114 -113.2447 154° Southeast 463 533 33,200 -600 Descending Salt Lake Center
01:17PM 37.3953 -113.1744 155° Southeast 462 532 33,000 -120 Descending Salt Lake Center
01:18PM 37.2781 -113.1044 155° Southeast 463 533 33,000  Level Salt Lake Center
01:19PM 37.1606 -113.0342 155° Southeast 464 534 33,000  Level Salt Lake Center
01:20PM 37.0494 -112.9686 155° Southeast 467 537 33,000  Level Los Angeles Center
01:21PM 36.9222 -112.8933 154° Southeast 467 537 33,000  Level Los Angeles Center
01:22PM 36.8100 -112.8253 155° Southeast 461 531 33,000  Level Los Angeles Center
01:23PM 36.6956 -112.7575 155° Southeast 461 531 33,000  Level Los Angeles Center
01:24PM 36.5789 -112.6900 155° Southeast 461 531 33,000  Level Los Angeles Center
01:25PM 36.4642 -112.6228 155° Southeast 456 525 33,000  Level Los Angeles Center
01:26PM 36.3497 -112.5556 157° South 456 525 33,000 -60 Level Los Angeles Center
01:27PM 36.2564 -112.5056 162° South 456 525 32,900 -720 Descending Los Angeles Center
01:29PM 36.0094 -112.4064 181° South 444 511 30,900 -1,020 Descending Los Angeles Center
01:30PM 35.8864 -112.4094 182° South 437 503 29,900 -600 Descending Los Angeles Center
01:32PM 35.5983 -112.4244 183° South 439 505 29,000 -300 Descending Albuquerque Center
01:33PM 35.4792 -112.4319 179° South 439 505 29,000  Level Albuquerque Center
01:34PM 35.3581 -112.4294 170° South 444 511 29,000  Level Albuquerque Center
01:35PM 35.2342 -112.4014 170° South 444 511 29,000 -480 Level Albuquerque Center
01:36PM 35.1122 -112.3758 169° South 444 511 28,100 -1,200 Descending Albuquerque Center
01:37PM 34.9922 -112.3483 171° South 444 511 26,600 -1,500 Descending Albuquerque Center
01:38PM 34.8742 -112.3258 169° South 444 511 25,100 -1,500 Descending Albuquerque Center
01:39PM 34.7586 -112.2986 170° South 439 505 23,600 -1,080 Descending Albuquerque Center
01:40PM 34.6469 -112.2742 170° South 427 491 23,000 -1,020 Descending Albuquerque Center
01:41PM 34.5353 -112.2497 171° South 422 486 21,600 -1,740 Descending Albuquerque Center
01:42PM 34.4275 -112.2283 168° South 404 465 19,600 -2,280 Descending Albuquerque Center
01:43PM 34.3181 -112.1992 168° South 390 449 17,100 -2,280 Descending Albuquerque Center
01:44PM 34.2211 -112.1733 168° South 369 425 15,100 -1,620 Descending Albuquerque Center
01:45PM 34.1322 -112.1506 176° South 350 403 13,900 -1,440 Descending Albuquerque Center
01:46PM 34.0492 -112.1433 183° South 326 375 12,300 -1,620 Descending Albuquerque Center
01:47PM 33.9675 -112.1486 188° South 310 357 10,700 -1,560 Descending Albuquerque Center
01:48PM 33.8878 -112.1617 192° South 300 345 9,200 -1,020 Descending Albuquerque Center
01:50PM 33.7333 -112.2000 180° South 233 268 7,700 -720 Descending Phoenix TRACON
01:51PM 33.6833 -112.2000 192° South 231 266 7,000 -900 Descending Phoenix TRACON
01:52PM 33.6167 -112.2167 192° South 225 259 6,100 -840 Descending Phoenix TRACON
01:53PM 33.5500 -112.2333 180° South 225 259 5,400 -840 Descending Phoenix TRACON
01:54PM 33.5000 -112.2333 140° Southeast 216 249 4,500 -840 Descending Phoenix TRACON
01:55PM 33.4500 -112.1833 140° Southeast 190 219 3,700 -780 Descending Phoenix TRACON